sensor_id;sensor_type;location;lat;lon;timestamp;noise_LAeq;noise_LA_min;noise_LA_max;noise_LA01;noise_LA95
57092;Laerm;42968;52.094;4.328;2022-07-23T00:01:53;61.96;36.69;81.14;;
57092;Laerm;42968;52.094;4.328;2022-07-23T00:04:18;61.46;41.68;72.07;;
57092;Laerm;42968;52.094;4.328;2022-07-23T00:06:44;60.71;41.96;72.31;;
57092;Laerm;42968;52.094;4.328;2022-07-23T00:09:09;59.53;38.21;70.42;;
57092;Laerm;42968;52.094;4.328;2022-07-23T00:11:34;60.76;38.67;70.41;;
57092;Laerm;42968;52.094;4.328;2022-07-23T00:13:59;58.74;39.58;70.14;;
57092;Laerm;42968;52.094;4.328;2022-07-23T00:16:24;58.04;40.89;73.14;;
57092;Laerm;42968;52.094;4.328;2022-07-23T00:18:50;60.10;39.34;72.32;;
57092;Laerm;42968;52.094;4.328;2022-07-23T00:21:15;58.53;39.34;69.31;;
57092;Laerm;42968;52.094;4.328;2022-07-23T00:23:40;57.65;37.88;69.57;;
57092;Laerm;42968;52.094;4.328;2022-07-23T00:26:06;56.44;36.45;70.78;;
57092;Laerm;42968;52.094;4.328;2022-07-23T00:28:32;59.92;41.53;73.89;;
57092;Laerm;42968;52.094;4.328;2022-07-23T00:30:58;58.79;39.08;71.06;;
57092;Laerm;42968;52.094;4.328;2022-07-23T00:33:23;56.78;36.91;68.84;;
57092;Laerm;42968;52.094;4.328;2022-07-23T00:35:48;59.39;39.58;71.77;;
57092;Laerm;42968;52.094;4.328;2022-07-23T00:38:13;63.50;41.61;77.21;;
57092;Laerm;42968;52.094;4.328;2022-07-23T00:40:39;59.90;40.53;74.52;;
57092;Laerm;42968;52.094;4.328;2022-07-23T00:43:05;60.19;39.81;73.43;;
57092;Laerm;42968;52.094;4.328;2022-07-23T00:45:30;59.51;36.91;71.74;;
57092;Laerm;42968;52.094;4.328;2022-07-23T00:47:56;51.20;35.04;67.93;;
57092;Laerm;42968;52.094;4.328;2022-07-23T00:50:22;52.54;36.20;67.19;;
57092;Laerm;42968;52.094;4.328;2022-07-23T00:52:47;55.01;38.95;69.42;;
57092;Laerm;42968;52.094;4.328;2022-07-23T00:55:12;59.79;40.71;72.75;;
57092;Laerm;42968;52.094;4.328;2022-07-23T00:57:39;55.26;36.91;69.53;;
57092;Laerm;42968;52.094;4.328;2022-07-23T01:00:06;61.14;41.61;75.60;;
57092;Laerm;42968;52.094;4.328;2022-07-23T01:02:32;56.22;37.88;71.91;;
57092;Laerm;42968;52.094;4.328;2022-07-23T01:04:57;55.64;36.45;69.78;;
57092;Laerm;42968;52.094;4.328;2022-07-23T01:07:22;55.05;39.34;71.64;;
57092;Laerm;42968;52.094;4.328;2022-07-23T01:09:48;58.40;36.91;71.91;;
57092;Laerm;42968;52.094;4.328;2022-07-23T01:12:14;55.11;36.91;67.75;;
57092;Laerm;42968;52.094;4.328;2022-07-23T01:14:39;60.02;39.81;72.09;;
57092;Laerm;42968;52.094;4.328;2022-07-23T01:17:05;52.54;38.37;69.02;;
57092;Laerm;42968;52.094;4.328;2022-07-23T01:19:30;56.74;38.05;69.22;;
57092;Laerm;42968;52.094;4.328;2022-07-23T01:21:56;58.89;39.81;71.93;;
57092;Laerm;42968;52.094;4.328;2022-07-23T01:24:22;53.46;37.12;68.24;;
57092;Laerm;42968;52.094;4.328;2022-07-23T01:26:47;58.62;36.69;74.26;;
57092;Laerm;42968;52.094;4.328;2022-07-23T01:29:13;40.73;35.94;49.14;;
57092;Laerm;42968;52.094;4.328;2022-07-23T01:31:38;56.79;37.70;70.79;;
57092;Laerm;42968;52.094;4.328;2022-07-23T01:34:04;61.82;35.66;85.47;;
57092;Laerm;42968;52.094;4.328;2022-07-23T01:36:30;57.35;34.69;75.45;;
57092;Laerm;42968;52.094;4.328;2022-07-23T01:38:55;42.45;36.20;56.37;;
57092;Laerm;42968;52.094;4.328;2022-07-23T01:41:20;61.81;40.62;78.87;;
57092;Laerm;42968;52.094;4.328;2022-07-23T01:43:46;52.77;34.69;69.36;;
57092;Laerm;42968;52.094;4.328;2022-07-23T01:46:11;56.10;36.69;72.83;;
57092;Laerm;42968;52.094;4.328;2022-07-23T01:48:37;40.09;34.69;52.76;;
57092;Laerm;42968;52.094;4.328;2022-07-23T01:51:02;53.48;37.52;72.84;;
57092;Laerm;42968;52.094;4.328;2022-07-23T01:53:27;55.44;36.69;72.01;;
57092;Laerm;42968;52.094;4.328;2022-07-23T01:55:52;55.73;37.32;71.64;;
57092;Laerm;42968;52.094;4.328;2022-07-23T01:58:18;55.91;37.32;70.81;;
57092;Laerm;42968;52.094;4.328;2022-07-23T02:00:43;51.46;36.20;67.76;;
57092;Laerm;42968;52.094;4.328;2022-07-23T02:03:08;56.31;37.88;71.81;;
57092;Laerm;42968;52.094;4.328;2022-07-23T02:05:33;56.24;36.69;69.40;;
57092;Laerm;42968;52.094;4.328;2022-07-23T02:07:59;57.07;39.70;74.11;;
57092;Laerm;42968;52.094;4.328;2022-07-23T02:10:25;55.07;32.35;71.12;;
57092;Laerm;42968;52.094;4.328;2022-07-23T02:12:50;52.64;33.55;68.00;;
57092;Laerm;42968;52.094;4.328;2022-07-23T02:15:16;53.64;38.81;69.88;;
57092;Laerm;42968;52.094;4.328;2022-07-23T02:17:41;52.69;37.88;69.91;;
57092;Laerm;42968;52.094;4.328;2022-07-23T02:20:07;55.94;38.37;72.37;;
57092;Laerm;42968;52.094;4.328;2022-07-23T02:22:33;58.40;37.12;75.69;;
57092;Laerm;42968;52.094;4.328;2022-07-23T02:24:58;51.84;36.91;72.21;;
57092;Laerm;42968;52.094;4.328;2022-07-23T02:27:23;56.53;38.37;69.67;;
57092;Laerm;42968;52.094;4.328;2022-07-23T02:29:49;56.21;38.05;75.48;;
57092;Laerm;42968;52.094;4.328;2022-07-23T02:32:14;41.00;36.91;43.94;;
57092;Laerm;42968;52.094;4.328;2022-07-23T02:34:39;56.03;37.12;70.89;;
57092;Laerm;42968;52.094;4.328;2022-07-23T02:37:04;52.57;37.12;70.74;;
57092;Laerm;42968;52.094;4.328;2022-07-23T02:39:30;47.33;36.69;65.32;;
57092;Laerm;42968;52.094;4.328;2022-07-23T02:41:55;51.58;36.69;68.63;;
57092;Laerm;42968;52.094;4.328;2022-07-23T02:44:20;56.42;35.94;73.03;;
57092;Laerm;42968;52.094;4.328;2022-07-23T02:46:45;56.32;38.52;71.78;;
57092;Laerm;42968;52.094;4.328;2022-07-23T02:49:11;59.93;40.62;78.10;;
57092;Laerm;42968;52.094;4.328;2022-07-23T02:51:36;53.03;38.81;70.70;;
57092;Laerm;42968;52.094;4.328;2022-07-23T02:54:02;46.25;37.70;62.39;;
57092;Laerm;42968;52.094;4.328;2022-07-23T02:56:27;55.55;36.45;72.87;;
57092;Laerm;42968;52.094;4.328;2022-07-23T02:58:52;58.01;38.21;74.04;;
57092;Laerm;42968;52.094;4.328;2022-07-23T03:01:18;50.96;36.91;70.89;;
57092;Laerm;42968;52.094;4.328;2022-07-23T03:03:43;58.93;38.05;78.84;;
57092;Laerm;42968;52.094;4.328;2022-07-23T03:06:08;58.61;38.37;71.22;;
57092;Laerm;42968;52.094;4.328;2022-07-23T03:08:33;59.65;37.32;75.61;;
57092;Laerm;42968;52.094;4.328;2022-07-23T03:10:59;58.16;36.20;75.29;;
57092;Laerm;42968;52.094;4.328;2022-07-23T03:13:24;53.33;37.52;67.06;;
57092;Laerm;42968;52.094;4.328;2022-07-23T03:15:49;48.28;38.05;64.24;;
57092;Laerm;42968;52.094;4.328;2022-07-23T03:18:14;59.07;38.05;73.88;;
57092;Laerm;42968;52.094;4.328;2022-07-23T03:20:40;62.68;42.53;80.04;;
57092;Laerm;42968;52.094;4.328;2022-07-23T03:23:05;59.36;38.95;73.94;;
57092;Laerm;42968;52.094;4.328;2022-07-23T03:25:30;61.21;41.06;78.43;;
57092;Laerm;42968;52.094;4.328;2022-07-23T03:27:55;53.95;39.34;67.75;;
57092;Laerm;42968;52.094;4.328;2022-07-23T03:30:21;61.73;40.33;78.10;;
57092;Laerm;42968;52.094;4.328;2022-07-23T03:32:46;59.32;38.52;74.29;;
57092;Laerm;42968;52.094;4.328;2022-07-23T03:35:11;63.58;40.71;80.47;;
57092;Laerm;42968;52.094;4.328;2022-07-23T03:37:37;59.92;39.70;73.33;;
57092;Laerm;42968;52.094;4.328;2022-07-23T03:40:02;58.95;39.46;72.86;;
57092;Laerm;42968;52.094;4.328;2022-07-23T03:42:27;57.65;38.81;74.10;;
57092;Laerm;42968;52.094;4.328;2022-07-23T03:44:52;62.57;39.92;79.95;;
57092;Laerm;42968;52.094;4.328;2022-07-23T03:47:18;58.86;40.33;75.07;;
57092;Laerm;42968;52.094;4.328;2022-07-23T03:49:46;59.40;38.21;74.56;;
57092;Laerm;42968;52.094;4.328;2022-07-23T03:52:11;62.47;41.22;77.26;;
57092;Laerm;42968;52.094;4.328;2022-07-23T03:54:37;53.51;38.52;68.95;;
57092;Laerm;42968;52.094;4.328;2022-07-23T03:57:02;59.48;41.53;76.82;;
57092;Laerm;42968;52.094;4.328;2022-07-23T03:59:27;62.18;41.53;75.17;;
57092;Laerm;42968;52.094;4.328;2022-07-23T04:01:52;57.32;40.89;74.70;;
57092;Laerm;42968;52.094;4.328;2022-07-23T04:04:18;60.04;39.70;76.98;;
57092;Laerm;42968;52.094;4.328;2022-07-23T04:06:43;62.91;40.13;78.86;;
57092;Laerm;42968;52.094;4.328;2022-07-23T04:09:08;57.70;39.34;71.37;;
57092;Laerm;42968;52.094;4.328;2022-07-23T04:11:34;62.92;39.46;79.40;;
57092;Laerm;42968;52.094;4.328;2022-07-23T04:13:59;61.41;39.46;83.72;;
57092;Laerm;42968;52.094;4.328;2022-07-23T04:16:24;62.87;40.43;76.36;;
57092;Laerm;42968;52.094;4.328;2022-07-23T04:18:49;60.26;39.92;76.65;;
57092;Laerm;42968;52.094;4.328;2022-07-23T04:21:14;60.31;41.89;73.67;;
57092;Laerm;42968;52.094;4.328;2022-07-23T04:23:40;62.40;42.59;75.35;;
57092;Laerm;42968;52.094;4.328;2022-07-23T04:26:05;56.57;39.70;76.19;;
57092;Laerm;42968;52.094;4.328;2022-07-23T04:28:30;62.26;41.14;73.40;;
57092;Laerm;42968;52.094;4.328;2022-07-23T04:30:56;61.30;41.14;75.11;;
57092;Laerm;42968;52.094;4.328;2022-07-23T04:33:22;63.23;40.33;82.71;;
57092;Laerm;42968;52.094;4.328;2022-07-23T04:35:47;66.38;42.65;86.06;;
57092;Laerm;42968;52.094;4.328;2022-07-23T04:38:12;64.58;44.47;75.84;;
57092;Laerm;42968;52.094;4.328;2022-07-23T04:40:38;62.88;43.81;75.64;;
57092;Laerm;42968;52.094;4.328;2022-07-23T04:43:03;65.14;43.14;81.59;;
57092;Laerm;42968;52.094;4.328;2022-07-23T04:45:28;62.14;48.67;75.61;;
57092;Laerm;42968;52.094;4.328;2022-07-23T04:47:53;64.45;45.89;77.05;;
57092;Laerm;42968;52.094;4.328;2022-07-23T04:50:19;60.65;40.53;72.47;;
57092;Laerm;42968;52.094;4.328;2022-07-23T04:52:46;62.84;41.41;74.04;;
57092;Laerm;42968;52.094;4.328;2022-07-23T04:55:12;63.32;42.47;78.23;;
57092;Laerm;42968;52.094;4.328;2022-07-23T04:57:37;58.94;40.62;73.16;;
57092;Laerm;42968;52.094;4.328;2022-07-23T05:00:03;59.49;41.22;73.40;;
57092;Laerm;42968;52.094;4.328;2022-07-23T05:02:28;62.38;40.98;75.57;;
57092;Laerm;42968;52.094;4.328;2022-07-23T05:04:53;60.56;42.65;74.55;;
57092;Laerm;42968;52.094;4.328;2022-07-23T05:07:18;62.35;41.38;73.76;;
57092;Laerm;42968;52.094;4.328;2022-07-23T05:09:44;62.35;41.38;76.89;;
57092;Laerm;42968;52.094;4.328;2022-07-23T05:12:09;61.20;42.93;78.13;;
57092;Laerm;42968;52.094;4.328;2022-07-23T05:14:34;62.11;42.03;76.75;;
57092;Laerm;42968;52.094;4.328;2022-07-23T05:16:59;62.27;42.22;77.62;;
57092;Laerm;42968;52.094;4.328;2022-07-23T05:19:25;61.90;41.46;76.63;;
57092;Laerm;42968;52.094;4.328;2022-07-23T05:21:50;60.63;41.30;77.15;;
57092;Laerm;42968;52.094;4.328;2022-07-23T05:24:15;61.79;42.22;72.33;;
57092;Laerm;42968;52.094;4.328;2022-07-23T05:26:41;56.23;38.37;71.77;;
57092;Laerm;42968;52.094;4.328;2022-07-23T05:29:06;60.45;39.89;75.51;;
57092;Laerm;42968;52.094;4.328;2022-07-23T05:31:32;62.47;42.22;71.43;;
57092;Laerm;42968;52.094;4.328;2022-07-23T05:33:57;62.37;43.44;79.78;;
57092;Laerm;42968;52.094;4.328;2022-07-23T05:36:22;65.43;44.83;76.42;;
57092;Laerm;42968;52.094;4.328;2022-07-23T05:38:47;62.60;40.33;75.04;;
57092;Laerm;42968;52.094;4.328;2022-07-23T05:41:13;65.02;41.75;77.56;;
57092;Laerm;42968;52.094;4.328;2022-07-23T05:43:38;60.42;40.80;75.34;;
57092;Laerm;42968;52.094;4.328;2022-07-23T05:46:03;61.57;40.43;76.78;;
57092;Laerm;42968;52.094;4.328;2022-07-23T05:48:28;60.65;42.16;72.01;;
57092;Laerm;42968;52.094;4.328;2022-07-23T05:50:54;63.14;42.53;78.48;;
57092;Laerm;42968;52.094;4.328;2022-07-23T05:53:19;63.53;42.82;78.55;;
57092;Laerm;42968;52.094;4.328;2022-07-23T05:55:44;63.54;43.86;75.85;;
57092;Laerm;42968;52.094;4.328;2022-07-23T05:58:10;66.69;43.99;79.48;;
57092;Laerm;42968;52.094;4.328;2022-07-23T06:00:35;63.84;42.03;79.40;;
57092;Laerm;42968;52.094;4.328;2022-07-23T06:03:00;63.09;43.58;75.96;;
57092;Laerm;42968;52.094;4.328;2022-07-23T06:05:26;64.97;44.11;76.29;;
57092;Laerm;42968;52.094;4.328;2022-07-23T06:07:51;65.68;42.22;80.45;;
57092;Laerm;42968;52.094;4.328;2022-07-23T06:10:18;61.77;42.09;74.53;;
57092;Laerm;42968;52.094;4.328;2022-07-23T06:12:43;59.49;41.68;73.70;;
57092;Laerm;42968;52.094;4.328;2022-07-23T06:15:09;62.15;42.59;75.88;;
57092;Laerm;42968;52.094;4.328;2022-07-23T06:17:34;63.27;42.09;76.68;;
57092;Laerm;42968;52.094;4.328;2022-07-23T06:19:59;66.25;47.55;79.89;;
57092;Laerm;42968;52.094;4.328;2022-07-23T06:22:24;64.75;43.86;81.92;;
57092;Laerm;42968;52.094;4.328;2022-07-23T06:24:50;61.79;41.38;73.11;;
57092;Laerm;42968;52.094;4.328;2022-07-23T06:27:16;65.66;45.51;81.05;;
57092;Laerm;42968;52.094;4.328;2022-07-23T06:29:42;66.22;44.87;80.64;;
57092;Laerm;42968;52.094;4.328;2022-07-23T06:32:07;62.80;43.81;75.03;;
57092;Laerm;42968;52.094;4.328;2022-07-23T06:34:32;64.72;44.35;82.17;;
57092;Laerm;42968;52.094;4.328;2022-07-23T06:36:58;65.49;43.63;79.14;;
57092;Laerm;42968;52.094;4.328;2022-07-23T06:39:23;63.43;44.07;75.89;;
57092;Laerm;42968;52.094;4.328;2022-07-23T06:41:48;65.23;44.54;79.38;;
57092;Laerm;42968;52.094;4.328;2022-07-23T06:44:14;64.39;42.88;79.23;;
57092;Laerm;42968;52.094;4.328;2022-07-23T06:46:39;63.65;44.43;76.55;;
57092;Laerm;42968;52.094;4.328;2022-07-23T06:49:04;64.44;44.47;75.27;;
57092;Laerm;42968;52.094;4.328;2022-07-23T06:51:30;64.84;44.15;77.44;;
57092;Laerm;42968;52.094;4.328;2022-07-23T06:53:55;64.93;42.93;74.42;;
57092;Laerm;42968;52.094;4.328;2022-07-23T06:56:20;65.40;43.49;76.43;;
57092;Laerm;42968;52.094;4.328;2022-07-23T06:58:46;66.13;43.14;76.65;;
57092;Laerm;42968;52.094;4.328;2022-07-23T07:01:11;64.68;42.71;76.88;;
57092;Laerm;42968;52.094;4.328;2022-07-23T07:03:36;64.34;43.94;75.36;;
57092;Laerm;42968;52.094;4.328;2022-07-23T07:06:02;65.77;44.43;78.02;;
57092;Laerm;42968;52.094;4.328;2022-07-23T07:08:28;65.21;46.10;73.91;;
57092;Laerm;42968;52.094;4.328;2022-07-23T07:10:53;66.12;43.44;80.14;;
57092;Laerm;42968;52.094;4.328;2022-07-23T07:13:18;63.73;43.94;74.35;;
57092;Laerm;42968;52.094;4.328;2022-07-23T07:15:43;65.54;45.91;74.19;;
57092;Laerm;42968;52.094;4.328;2022-07-23T07:18:09;66.57;48.64;77.52;;
57092;Laerm;42968;52.094;4.328;2022-07-23T07:20:34;65.33;46.43;77.91;;
57092;Laerm;42968;52.094;4.328;2022-07-23T07:22:59;65.17;44.87;73.11;;
57092;Laerm;42968;52.094;4.328;2022-07-23T07:25:24;66.70;46.38;81.23;;
57092;Laerm;42968;52.094;4.328;2022-07-23T07:27:50;64.69;45.01;78.44;;
57092;Laerm;42968;52.094;4.328;2022-07-23T07:30:15;65.36;48.78;72.93;;
57092;Laerm;42968;52.094;4.328;2022-07-23T07:32:41;65.45;44.27;76.75;;
57092;Laerm;42968;52.094;4.328;2022-07-23T07:35:06;67.61;46.35;78.52;;
57092;Laerm;42968;52.094;4.328;2022-07-23T07:37:32;66.99;46.10;78.54;;
57092;Laerm;42968;52.094;4.328;2022-07-23T07:39:57;64.20;42.98;75.46;;
57092;Laerm;42968;52.094;4.328;2022-07-23T07:42:22;66.91;42.47;78.60;;
57092;Laerm;42968;52.094;4.328;2022-07-23T07:44:47;66.22;49.19;73.21;;
57092;Laerm;42968;52.094;4.328;2022-07-23T07:47:13;66.72;46.35;75.90;;
57092;Laerm;42968;52.094;4.328;2022-07-23T07:49:40;68.05;48.46;83.92;;
57092;Laerm;42968;52.094;4.328;2022-07-23T07:52:05;66.23;42.16;74.59;;
57092;Laerm;42968;52.094;4.328;2022-07-23T07:54:31;65.93;43.68;78.94;;
57092;Laerm;42968;52.094;4.328;2022-07-23T07:56:57;66.18;46.97;82.60;;
57092;Laerm;42968;52.094;4.328;2022-07-23T07:59:22;66.76;43.49;78.05;;
57092;Laerm;42968;52.094;4.328;2022-07-23T08:01:47;67.27;49.33;75.37;;
57092;Laerm;42968;52.094;4.328;2022-07-23T08:04:12;66.92;50.76;75.84;;
57092;Laerm;42968;52.094;4.328;2022-07-23T08:06:38;67.75;47.04;79.03;;
57092;Laerm;42968;52.094;4.328;2022-07-23T08:09:03;67.65;51.04;79.72;;
57092;Laerm;42968;52.094;4.328;2022-07-23T08:11:28;66.34;52.23;74.08;;
57092;Laerm;42968;52.094;4.328;2022-07-23T08:13:53;67.41;43.81;78.31;;
57092;Laerm;42968;52.094;4.328;2022-07-23T08:16:19;66.64;47.98;74.98;;
57092;Laerm;42968;52.094;4.328;2022-07-23T08:18:44;65.79;45.30;81.14;;
57092;Laerm;42968;52.094;4.328;2022-07-23T08:21:09;64.67;44.83;75.05;;
57092;Laerm;42968;52.094;4.328;2022-07-23T08:23:34;67.63;52.06;77.72;;
57092;Laerm;42968;52.094;4.328;2022-07-23T08:26:00;66.25;44.62;76.17;;
57092;Laerm;42968;52.094;4.328;2022-07-23T08:28:26;67.13;45.97;78.32;;
57092;Laerm;42968;52.094;4.328;2022-07-23T08:30:51;66.34;46.62;76.12;;
57092;Laerm;42968;52.094;4.328;2022-07-23T08:33:17;67.73;49.07;78.77;;
57092;Laerm;42968;52.094;4.328;2022-07-23T08:35:43;65.02;46.02;78.07;;
57092;Laerm;42968;52.094;4.328;2022-07-23T08:38:11;67.81;46.73;76.79;;
57092;Laerm;42968;52.094;4.328;2022-07-23T08:40:38;69.13;51.63;81.28;;
57092;Laerm;42968;52.094;4.328;2022-07-23T08:43:05;67.61;47.16;76.25;;
57092;Laerm;42968;52.094;4.328;2022-07-23T08:45:31;66.82;45.04;80.68;;
57092;Laerm;42968;52.094;4.328;2022-07-23T08:47:59;66.07;46.40;75.58;;
57092;Laerm;42968;52.094;4.328;2022-07-23T08:50:25;70.82;46.87;92.13;;
57092;Laerm;42968;52.094;4.328;2022-07-23T08:52:51;66.10;44.54;74.63;;
57092;Laerm;42968;52.094;4.328;2022-07-23T08:55:20;67.58;49.73;78.41;;
57092;Laerm;42968;52.094;4.328;2022-07-23T08:57:49;66.91;47.83;76.48;;
57092;Laerm;42968;52.094;4.328;2022-07-23T09:00:15;66.76;47.83;74.44;;
57092;Laerm;42968;52.094;4.328;2022-07-23T09:02:41;66.16;43.90;77.20;;
57092;Laerm;42968;52.094;4.328;2022-07-23T09:05:07;68.31;43.99;81.02;;
57092;Laerm;42968;52.094;4.328;2022-07-23T09:07:33;67.56;55.13;74.80;;
57092;Laerm;42968;52.094;4.328;2022-07-23T09:10:08;66.31;43.63;75.52;;
57092;Laerm;42968;52.094;4.328;2022-07-23T09:12:34;67.78;43.09;79.22;;
57092;Laerm;42968;52.094;4.328;2022-07-23T09:15:07;67.51;43.19;78.15;;
57092;Laerm;42968;52.094;4.328;2022-07-23T09:17:40;66.60;50.78;73.47;;
57092;Laerm;42968;52.094;4.328;2022-07-23T09:20:09;68.05;45.48;77.53;;
57092;Laerm;42968;52.094;4.328;2022-07-23T09:22:34;68.35;44.23;80.83;;
57092;Laerm;42968;52.094;4.328;2022-07-23T09:25:13;66.56;46.13;75.43;;
57092;Laerm;42968;52.094;4.328;2022-07-23T09:30:13;66.26;44.43;79.72;;
57092;Laerm;42968;52.094;4.328;2022-07-23T09:32:39;67.31;46.13;81.15;;
57092;Laerm;42968;52.094;4.328;2022-07-23T09:35:04;67.14;44.73;75.52;;
57092;Laerm;42968;52.094;4.328;2022-07-23T09:37:29;68.66;47.50;77.25;;
57092;Laerm;42968;52.094;4.328;2022-07-23T09:40:02;69.52;45.89;82.28;;
57092;Laerm;42968;52.094;4.328;2022-07-23T09:42:28;67.66;46.15;75.48;;
57092;Laerm;42968;52.094;4.328;2022-07-23T09:44:54;65.02;43.81;76.97;;
57092;Laerm;42968;52.094;4.328;2022-07-23T09:47:20;69.03;46.18;84.57;;
57092;Laerm;42968;52.094;4.328;2022-07-23T09:50:02;67.08;44.19;75.53;;
57092;Laerm;42968;52.094;4.328;2022-07-23T09:52:30;67.43;43.44;75.65;;
57092;Laerm;42968;52.094;4.328;2022-07-23T09:54:59;67.61;45.48;75.71;;
57092;Laerm;42968;52.094;4.328;2022-07-23T09:57:25;68.70;48.16;78.39;;
57092;Laerm;42968;52.094;4.328;2022-07-23T09:59:52;66.12;46.15;77.18;;
57092;Laerm;42968;52.094;4.328;2022-07-23T10:02:17;67.95;48.85;79.52;;
57092;Laerm;42968;52.094;4.328;2022-07-23T10:04:43;67.23;42.35;77.16;;
57092;Laerm;42968;52.094;4.328;2022-07-23T10:07:09;68.61;46.15;93.57;;
57092;Laerm;42968;52.094;4.328;2022-07-23T10:09:36;67.53;48.67;81.58;;
57092;Laerm;42968;52.094;4.328;2022-07-23T10:12:12;66.83;46.93;73.79;;
57092;Laerm;42968;52.094;4.328;2022-07-23T10:14:56;67.68;51.13;83.64;;
57092;Laerm;42968;52.094;4.328;2022-07-23T10:17:22;67.34;44.80;79.12;;
57092;Laerm;42968;52.094;4.328;2022-07-23T10:19:47;65.05;44.83;74.32;;
57092;Laerm;42968;52.094;4.328;2022-07-23T10:22:13;68.66;43.63;77.38;;
57092;Laerm;42968;52.094;4.328;2022-07-23T10:24:47;66.27;49.70;75.67;;
57092;Laerm;42968;52.094;4.328;2022-07-23T10:33:12;68.38;45.27;82.93;;
57092;Laerm;42968;52.094;4.328;2022-07-23T10:35:21;67.42;47.20;76.32;;
57092;Laerm;42968;52.094;4.328;2022-07-23T10:37:49;68.82;48.25;83.03;;
57092;Laerm;42968;52.094;4.328;2022-07-23T10:40:17;68.46;56.23;80.63;;
57092;Laerm;42968;52.094;4.328;2022-07-23T10:42:43;66.17;44.11;78.02;;
57092;Laerm;42968;52.094;4.328;2022-07-23T10:47:52;67.57;50.22;76.71;;
57092;Laerm;42968;52.094;4.328;2022-07-23T10:53:02;68.22;44.58;82.95;;
57092;Laerm;42968;52.094;4.328;2022-07-23T10:57:53;67.54;50.78;77.08;;
57092;Laerm;42968;52.094;4.328;2022-07-23T11:00:22;67.96;50.26;79.96;;
57092;Laerm;42968;52.094;4.328;2022-07-23T11:02:50;68.33;53.93;80.79;;
57092;Laerm;42968;52.094;4.328;2022-07-23T11:05:17;67.67;43.99;88.38;;
57092;Laerm;42968;52.094;4.328;2022-07-23T11:10:43;67.88;44.31;76.25;;
57092;Laerm;42968;52.094;4.328;2022-07-23T11:31:56;68.09;50.78;75.37;;
57092;Laerm;42968;52.094;4.328;2022-07-23T11:34:32;65.78;48.66;75.22;;
57092;Laerm;42968;52.094;4.328;2022-07-23T11:36:58;69.21;48.16;83.15;;
57092;Laerm;42968;52.094;4.328;2022-07-23T11:39:25;66.10;44.23;78.62;;
57092;Laerm;42968;52.094;4.328;2022-07-23T11:41:51;68.30;48.88;82.95;;
57092;Laerm;42968;52.094;4.328;2022-07-23T11:44:29;67.73;44.39;81.09;;
57092;Laerm;42968;52.094;4.328;2022-07-23T11:46:59;67.37;50.10;82.06;;
57092;Laerm;42968;52.094;4.328;2022-07-23T11:49:25;69.20;45.83;83.67;;
57092;Laerm;42968;52.094;4.328;2022-07-23T11:52:06;68.80;48.46;84.69;;
57092;Laerm;42968;52.094;4.328;2022-07-23T11:54:33;69.01;45.99;80.62;;
57092;Laerm;42968;52.094;4.328;2022-07-23T11:56:59;68.33;49.06;79.44;;
57092;Laerm;42968;52.094;4.328;2022-07-23T11:59:25;68.21;45.39;82.24;;
57092;Laerm;42968;52.094;4.328;2022-07-23T12:02:01;68.20;44.73;79.00;;
57092;Laerm;42968;52.094;4.328;2022-07-23T12:04:46;68.54;47.38;84.97;;
57092;Laerm;42968;52.094;4.328;2022-07-23T12:07:25;66.84;49.46;76.51;;
57092;Laerm;42968;52.094;4.328;2022-07-23T12:09:50;67.60;46.64;81.05;;
57092;Laerm;42968;52.094;4.328;2022-07-23T12:12:16;68.47;51.22;84.79;;
57092;Laerm;42968;52.094;4.328;2022-07-23T12:14:48;67.54;47.28;78.76;;
57092;Laerm;42968;52.094;4.328;2022-07-23T12:17:13;67.43;50.10;76.06;;
57092;Laerm;42968;52.094;4.328;2022-07-23T12:19:39;66.71;46.76;75.24;;
57092;Laerm;42968;52.094;4.328;2022-07-23T12:22:04;68.16;48.03;80.11;;
57092;Laerm;42968;52.094;4.328;2022-07-23T12:24:29;68.26;50.36;77.27;;
57092;Laerm;42968;52.094;4.328;2022-07-23T12:27:07;66.33;48.16;79.42;;
57092;Laerm;42968;52.094;4.328;2022-07-23T12:29:35;68.39;51.12;78.54;;
57092;Laerm;42968;52.094;4.328;2022-07-23T12:32:01;67.79;45.77;80.49;;
57092;Laerm;42968;52.094;4.328;2022-07-23T12:34:26;67.99;43.44;78.73;;
57092;Laerm;42968;52.094;4.328;2022-07-23T12:36:51;67.63;49.55;77.70;;
57092;Laerm;42968;52.094;4.328;2022-07-23T12:39:32;68.21;51.66;77.15;;
57092;Laerm;42968;52.094;4.328;2022-07-23T12:41:57;69.10;46.57;78.65;;
57092;Laerm;42968;52.094;4.328;2022-07-23T12:44:23;65.88;48.87;77.21;;
57092;Laerm;42968;52.094;4.328;2022-07-23T12:46:51;68.54;50.89;87.09;;
57092;Laerm;42968;52.094;4.328;2022-07-23T12:49:26;67.59;50.33;78.41;;
57092;Laerm;42968;52.094;4.328;2022-07-23T12:51:52;67.54;47.59;74.07;;
57092;Laerm;42968;52.094;4.328;2022-07-23T12:54:17;67.29;46.48;76.25;;
57092;Laerm;42968;52.094;4.328;2022-07-23T12:56:46;67.10;46.91;79.30;;
57092;Laerm;42968;52.094;4.328;2022-07-23T12:59:11;68.35;47.98;77.58;;
57092;Laerm;42968;52.094;4.328;2022-07-23T13:01:41;67.99;46.02;80.25;;
57092;Laerm;42968;52.094;4.328;2022-07-23T13:04:09;68.48;44.76;83.62;;
57092;Laerm;42968;52.094;4.328;2022-07-23T13:09:00;68.01;45.97;82.20;;
57092;Laerm;42968;52.094;4.328;2022-07-23T13:11:25;70.11;47.46;85.51;;
57092;Laerm;42968;52.094;4.328;2022-07-23T13:13:51;68.12;46.55;77.56;;
57092;Laerm;42968;52.094;4.328;2022-07-23T13:16:16;68.26;45.45;79.52;;
57092;Laerm;42968;52.094;4.328;2022-07-23T13:18:42;70.17;46.80;81.90;;
57092;Laerm;42968;52.094;4.328;2022-07-23T13:21:07;66.93;45.04;75.34;;
57092;Laerm;42968;52.094;4.328;2022-07-23T13:23:33;68.28;45.23;80.91;;
57092;Laerm;42968;52.094;4.328;2022-07-23T13:25:58;67.64;45.42;84.03;;
57092;Laerm;42968;52.094;4.328;2022-07-23T13:28:23;72.03;46.07;93.11;;
57092;Laerm;42968;52.094;4.328;2022-07-23T13:30:49;67.38;45.30;77.51;;
57092;Laerm;42968;52.094;4.328;2022-07-23T13:33:19;68.05;47.26;76.56;;
57092;Laerm;42968;52.094;4.328;2022-07-23T13:35:44;67.78;46.55;80.48;;
57092;Laerm;42968;52.094;4.328;2022-07-23T13:38:10;68.11;51.89;77.32;;
57092;Laerm;42968;52.094;4.328;2022-07-23T13:40:36;66.12;43.14;74.55;;
57092;Laerm;42968;52.094;4.328;2022-07-23T13:43:04;67.20;47.26;79.19;;
57092;Laerm;42968;52.094;4.328;2022-07-23T13:45:30;67.22;54.93;79.55;;
57092;Laerm;42968;52.094;4.328;2022-07-23T13:47:55;67.33;45.28;77.14;;
57092;Laerm;42968;52.094;4.328;2022-07-23T13:50:20;67.92;44.97;78.67;;
57092;Laerm;42968;52.094;4.328;2022-07-23T13:52:46;67.17;47.63;80.24;;
57092;Laerm;42968;52.094;4.328;2022-07-23T13:55:11;67.18;53.91;77.81;;
57092;Laerm;42968;52.094;4.328;2022-07-23T13:57:37;67.73;47.74;84.52;;
57092;Laerm;42968;52.094;4.328;2022-07-23T14:00:03;67.51;45.20;76.69;;
57092;Laerm;42968;52.094;4.328;2022-07-23T14:02:28;66.65;46.71;73.71;;
57092;Laerm;42968;52.094;4.328;2022-07-23T14:04:53;66.90;50.54;75.12;;
57092;Laerm;42968;52.094;4.328;2022-07-23T14:07:19;68.45;45.72;80.81;;
57092;Laerm;42968;52.094;4.328;2022-07-23T14:09:44;67.01;45.77;81.46;;
57092;Laerm;42968;52.094;4.328;2022-07-23T14:12:10;68.06;51.44;80.44;;
57092;Laerm;42968;52.094;4.328;2022-07-23T14:14:35;66.77;48.54;74.53;;
57092;Laerm;42968;52.094;4.328;2022-07-23T14:17:00;67.30;51.57;81.03;;
57092;Laerm;42968;52.094;4.328;2022-07-23T14:19:25;69.07;53.88;87.35;;